createdAt,value
2022-10-14T00:01:35.402Z,13.48
2022-10-14T00:04:01.759Z,13.80
2022-10-14T00:06:29.427Z,13.52
2022-10-14T00:08:56.186Z,12.40
2022-10-14T00:11:27.235Z,11.43
2022-10-14T00:13:54.647Z,12.68
2022-10-14T00:16:22.456Z,11.93
2022-10-14T00:18:49.393Z,12.82
2022-10-14T00:21:15.838Z,11.88
2022-10-14T00:23:42.218Z,12.27
2022-10-14T00:26:14.621Z,12.57
2022-10-14T00:28:40.920Z,13.50
2022-10-14T00:31:07.438Z,12.43
2022-10-14T00:33:33.660Z,11.68
2022-10-14T00:36:01.197Z,12.40
2022-10-14T00:38:28.066Z,12.13
2022-10-14T00:40:54.971Z,11.60
2022-10-14T00:43:22.512Z,12.32
2022-10-14T00:45:48.766Z,11.88
2022-10-14T00:48:15.401Z,12.13
2022-10-14T00:50:43.198Z,11.27
2022-10-14T00:53:11.182Z,11.20
2022-10-14T00:55:42.450Z,11.32
2022-10-14T00:58:09.125Z,11.88
2022-10-14T01:00:35.658Z,10.85
2022-10-14T01:03:07.080Z,11.88
2022-10-14T01:05:36.356Z,11.63
2022-10-14T01:08:05.576Z,11.75
2022-10-14T01:10:34.981Z,12.27
2022-10-14T01:13:08.146Z,12.18
2022-10-14T01:15:55.345Z,12.02
2022-10-14T01:18:38.406Z,11.40
2022-10-14T01:21:23.087Z,12.88
2022-10-14T01:24:08.179Z,11.77
2022-10-14T01:26:40.235Z,12.13
2022-10-14T01:29:12.574Z,12.43
2022-10-14T01:31:41.913Z,12.30
2022-10-14T01:34:10.191Z,13.52
2022-10-14T01:36:51.971Z,12.70
2022-10-14T01:39:20.813Z,13.50
2022-10-14T01:41:49.618Z,13.65
2022-10-14T01:44:17.263Z,15.10
2022-10-14T01:46:44.493Z,14.40
2022-10-14T01:49:12.023Z,16.35
2022-10-14T01:51:41.375Z,16.80
2022-10-14T01:54:12.780Z,17.45
2022-10-14T01:56:40.662Z,17.83
2022-10-14T01:59:08.376Z,18.48
2022-10-14T02:01:36.480Z,19.30
2022-10-14T02:04:02.790Z,20.25
2022-10-14T02:06:34.380Z,20.40
2022-10-14T02:09:15.795Z,17.55
2022-10-14T02:11:51.189Z,20.33
2022-10-14T02:14:22.100Z,18.60
2022-10-14T02:17:01.350Z,19.85
2022-10-14T02:19:38.312Z,19.35
2022-10-14T02:22:07.484Z,22.08
2022-10-14T02:24:39.974Z,21.45
2022-10-14T02:27:08.772Z,21.20
2022-10-14T02:29:36.271Z,21.73
2022-10-14T02:32:04.727Z,20.73
2022-10-14T02:34:31.414Z,22.23
2022-10-14T02:36:58.779Z,21.83
2022-10-14T02:39:30.201Z,20.25
2022-10-14T02:41:56.549Z,20.45
2022-10-14T02:44:22.802Z,20.27
2022-10-14T02:46:49.211Z,20.33
2022-10-14T02:49:15.989Z,20.88
2022-10-14T02:51:42.221Z,21.88
2022-10-14T02:54:08.500Z,21.45
2022-10-14T02:56:34.732Z,21.17
2022-10-14T02:59:00.956Z,21.48
2022-10-14T03:01:27.311Z,22.83
2022-10-14T03:03:53.564Z,20.98
2022-10-14T03:06:19.787Z,21.83
2022-10-14T03:08:46.065Z,20.95
2022-10-14T03:11:12.328Z,22.30
2022-10-14T03:13:38.541Z,22.83
2022-10-14T03:16:05.059Z,23.10
2022-10-14T03:18:31.351Z,23.23
2022-10-14T03:20:57.665Z,23.10
2022-10-14T03:23:23.896Z,22.40
2022-10-14T03:25:50.133Z,23.55
2022-10-14T03:28:16.414Z,22.90
2022-10-14T03:30:42.884Z,25.20
2022-10-14T03:33:12.104Z,24.15
2022-10-14T03:35:40.526Z,24.52
2022-10-14T03:38:06.786Z,24.35
2022-10-14T03:40:33.032Z,24.13
2022-10-14T03:43:00.881Z,25.27
2022-10-14T03:45:28.371Z,25.33
2022-10-14T03:47:55.053Z,25.65
2022-10-14T03:50:21.303Z,25.95
2022-10-14T03:52:49.189Z,26.52
2022-10-14T03:57:44.592Z,25.02
2022-10-14T04:00:11.334Z,25.00
2022-10-14T04:02:37.569Z,26.77
2022-10-14T04:05:03.847Z,27.10
2022-10-14T04:07:30.055Z,26.35
2022-10-14T04:09:56.365Z,26.85
2022-10-14T04:12:23.078Z,26.55
2022-10-14T04:14:49.769Z,25.85
2022-10-14T04:17:16.049Z,24.85
2022-10-14T04:19:42.268Z,26.02
2022-10-14T04:22:09.442Z,27.10
2022-10-14T04:24:35.775Z,27.33
2022-10-14T04:27:02.035Z,26.27
2022-10-14T04:29:28.268Z,27.48
2022-10-14T04:31:54.476Z,27.70
2022-10-14T04:34:21.498Z,26.55
2022-10-14T04:36:47.713Z,27.08
2022-10-14T04:39:15.226Z,28.38
2022-10-14T04:41:42.316Z,26.88
2022-10-14T04:44:08.553Z,27.08
2022-10-14T04:46:34.779Z,27.73
2022-10-14T04:49:01.019Z,25.88
2022-10-14T04:51:27.320Z,26.40
2022-10-14T04:53:53.609Z,26.98
2022-10-14T04:56:19.832Z,28.10
2022-10-14T04:58:46.123Z,27.55
2022-10-14T05:01:12.339Z,27.98
2022-10-14T05:03:38.568Z,27.92
2022-10-14T05:06:04.850Z,26.92
2022-10-14T05:08:31.124Z,26.15
2022-10-14T05:10:57.372Z,25.58
2022-10-14T05:13:23.600Z,27.30
2022-10-14T05:15:49.902Z,25.88
2022-10-14T05:18:16.168Z,27.63
2022-10-14T05:20:42.433Z,26.90
2022-10-14T05:23:08.680Z,26.08
2022-10-14T05:25:34.882Z,27.83
2022-10-14T05:28:01.087Z,25.13
2022-10-14T05:30:32.195Z,26.50
2022-10-14T05:33:00.691Z,25.80
2022-10-14T05:35:46.721Z,26.58
2022-10-14T05:38:13.516Z,25.67
2022-10-14T05:40:40.042Z,25.35
2022-10-14T05:43:06.733Z,24.13
2022-10-14T05:45:32.955Z,24.48
2022-10-14T05:47:59.177Z,25.10
2022-10-14T05:50:25.446Z,23.10
2022-10-14T05:52:51.683Z,21.88
2022-10-14T05:55:17.930Z,22.73
2022-10-14T05:57:44.499Z,22.42
2022-10-14T06:00:10.984Z,21.77
2022-10-14T06:02:37.193Z,21.98
2022-10-14T06:05:03.455Z,21.85
2022-10-14T06:07:29.681Z,21.77
2022-10-14T06:09:55.895Z,21.60
2022-10-14T06:12:22.453Z,20.73
2022-10-14T06:14:48.877Z,20.35
2022-10-14T06:17:17.323Z,19.65
2022-10-14T06:19:43.868Z,18.80
2022-10-14T06:22:10.072Z,19.67
2022-10-14T06:24:37.136Z,18.63
2022-10-14T06:27:03.410Z,18.77
2022-10-14T06:29:37.498Z,16.90
2022-10-14T06:32:04.674Z,16.52
2022-10-14T06:34:31.141Z,17.30
2022-10-14T06:37:02.049Z,16.58
2022-10-14T06:39:28.774Z,16.30
2022-10-14T06:41:55.107Z,16.30
2022-10-14T06:44:21.351Z,15.23
2022-10-14T06:46:47.616Z,15.13
2022-10-14T06:49:14.519Z,15.20
2022-10-14T06:51:40.845Z,14.25
2022-10-14T06:54:07.932Z,14.68
2022-10-14T06:56:34.562Z,14.55
2022-10-14T06:59:00.830Z,15.13
2022-10-14T07:01:27.340Z,15.48
2022-10-14T07:03:55.919Z,14.75
2022-10-14T07:06:23.158Z,15.02
2022-10-14T07:08:49.431Z,14.63
2022-10-14T07:11:15.659Z,14.07
2022-10-14T07:13:41.955Z,14.05
2022-10-14T07:16:08.208Z,14.70
2022-10-14T07:18:34.419Z,14.25
2022-10-14T07:21:04.316Z,13.20
2022-10-14T07:23:30.704Z,13.77
2022-10-14T07:25:57.582Z,14.20
2022-10-14T07:28:24.022Z,13.18
2022-10-14T07:31:04.606Z,12.35
2022-10-14T07:33:30.885Z,11.48
2022-10-14T07:36:00.766Z,12.38
2022-10-14T07:38:27.010Z,11.30
2022-10-14T07:41:00.438Z,11.90
2022-10-14T07:43:26.942Z,11.10
2022-10-14T07:46:00.088Z,11.73
2022-10-14T07:48:32.953Z,11.43
2022-10-14T07:51:11.149Z,13.00
2022-10-14T07:53:37.379Z,13.45
2022-10-14T07:56:03.713Z,13.60
2022-10-14T07:58:30.950Z,13.80
2022-10-14T08:00:57.690Z,13.98
2022-10-14T08:03:24.435Z,13.55
2022-10-14T08:05:50.807Z,14.43
2022-10-14T08:08:18.109Z,14.30
2022-10-14T08:10:45.198Z,14.02
2022-10-14T08:13:11.539Z,15.00
2022-10-14T08:15:40.639Z,15.52
2022-10-14T08:18:08.056Z,15.80
2022-10-14T08:20:34.703Z,15.52
2022-10-14T08:23:01.109Z,15.93
2022-10-14T08:25:27.599Z,16.13
2022-10-14T08:27:54.498Z,16.50
2022-10-14T08:30:21.202Z,15.98
2022-10-14T08:32:47.511Z,15.82
2022-10-14T08:35:13.756Z,16.50
2022-10-14T08:37:40.016Z,15.63
2022-10-14T08:40:06.680Z,16.52
2022-10-14T08:42:55.618Z,16.83
2022-10-14T08:45:29.825Z,17.08
2022-10-14T08:47:57.098Z,16.15
2022-10-14T08:50:32.413Z,17.38
2022-10-14T08:53:17.594Z,16.38
2022-10-14T08:55:46.321Z,16.02
2022-10-14T08:58:14.570Z,15.35
2022-10-14T09:00:42.266Z,15.40
2022-10-14T09:03:15.938Z,16.05
2022-10-14T09:05:42.262Z,16.40
2022-10-14T09:08:12.493Z,15.25
2022-10-14T09:10:40.072Z,15.60
2022-10-14T09:13:10.221Z,13.93
2022-10-14T09:15:41.018Z,14.55
2022-10-14T09:18:28.793Z,14.00
2022-10-14T09:20:56.202Z,13.77
2022-10-14T09:23:23.411Z,13.57
2022-10-14T09:25:59.771Z,13.23
2022-10-14T09:28:34.576Z,13.45
2022-10-14T09:31:00.872Z,14.20
2022-10-14T09:33:27.841Z,13.27
2022-10-14T09:35:54.207Z,13.88
2022-10-14T09:38:20.838Z,14.05
2022-10-14T09:40:52.083Z,14.90
2022-10-14T09:43:19.954Z,14.07
2022-10-14T09:45:52.491Z,14.50
2022-10-14T09:48:23.987Z,14.23
2022-10-14T09:50:51.851Z,14.63
2022-10-14T09:53:36.688Z,14.63
2022-10-14T09:56:04.723Z,15.10
2022-10-14T09:58:47.794Z,14.57
2022-10-14T10:01:19.039Z,13.68
2022-10-14T10:03:46.040Z,13.93
2022-10-14T10:06:13.391Z,14.43
2022-10-14T10:08:42.087Z,13.75
2022-10-14T10:11:10.981Z,13.18
2022-10-14T10:13:47.003Z,13.07
2022-10-14T10:16:39.444Z,13.52
2022-10-14T10:19:24.305Z,13.45
2022-10-14T10:21:50.539Z,12.85
2022-10-14T10:24:24.902Z,13.07
2022-10-14T10:26:53.703Z,13.45
2022-10-14T10:29:35.223Z,13.90
2022-10-14T10:32:01.658Z,13.43
2022-10-14T10:34:30.715Z,12.38
2022-10-14T10:37:08.873Z,12.35
2022-10-14T10:39:41.603Z,12.65
2022-10-14T10:42:30.127Z,11.20
2022-10-14T10:45:06.862Z,10.88
2022-10-14T10:47:38.034Z,11.52
2022-10-14T10:50:09.947Z,11.32
2022-10-14T10:52:48.811Z,10.00
2022-10-14T10:55:35.397Z,9.55
2022-10-14T10:58:03.728Z,10.35
2022-10-14T11:03:10.797Z,9.20
2022-10-14T11:05:50.639Z,9.32
2022-10-14T11:08:35.426Z,9.17
2022-10-14T11:11:27.722Z,9.38
2022-10-14T11:14:01.721Z,9.90
2022-10-14T11:16:34.114Z,10.63
2022-10-14T11:19:09.769Z,11.10
2022-10-14T11:21:42.910Z,11.57
2022-10-14T11:24:21.501Z,10.60
2022-10-14T11:26:50.778Z,10.48
2022-10-14T11:29:26.885Z,10.85
2022-10-14T11:32:05.372Z,11.57
2022-10-14T11:34:34.356Z,10.57
2022-10-14T11:37:00.545Z,10.57
2022-10-14T11:39:36.372Z,9.80
2022-10-14T11:42:13.674Z,10.38
2022-10-14T11:44:43.508Z,10.50
2022-10-14T11:47:16.046Z,10.17
2022-10-14T11:49:45.888Z,9.85
2022-10-14T11:52:17.187Z,9.20
2022-10-14T11:55:02.001Z,8.00
2022-10-14T11:57:35.321Z,9.48
2022-10-14T12:00:04.571Z,9.00
2022-10-14T12:02:37.994Z,8.85
2022-10-14T12:05:14.951Z,9.30
2022-10-14T12:07:45.503Z,9.10
2022-10-14T12:10:19.672Z,8.82
2022-10-14T12:12:46.144Z,8.95
2022-10-14T12:15:20.456Z,8.77
2022-10-14T12:18:01.795Z,9.05
2022-10-14T12:20:33.623Z,9.38
2022-10-14T12:23:00.808Z,9.20
2022-10-14T12:25:30.400Z,9.07
2022-10-14T12:27:56.724Z,9.15
2022-10-14T12:30:37.721Z,8.93
2022-10-14T12:33:05.743Z,8.75
2022-10-14T12:35:51.629Z,7.25
2022-10-14T12:38:18.433Z,8.80
2022-10-14T12:40:44.799Z,8.18
2022-10-14T12:43:18.911Z,8.10
2022-10-14T12:46:03.218Z,7.47
2022-10-14T12:48:33.885Z,8.20
2022-10-14T12:53:27.816Z,7.05
2022-10-14T12:55:55.790Z,6.53
2022-10-14T12:58:24.116Z,6.70
2022-10-14T13:00:54.986Z,6.18
2022-10-14T13:03:23.741Z,6.38
2022-10-14T13:05:49.998Z,6.38
2022-10-14T13:08:25.631Z,6.90
2022-10-14T13:10:54.899Z,6.60
2022-10-14T13:13:47.841Z,5.90
2022-10-14T13:17:02.365Z,6.43
2022-10-14T13:19:34.315Z,5.93
2022-10-14T13:22:04.822Z,6.30
2022-10-14T13:24:41.693Z,6.18
2022-10-14T13:27:31.002Z,6.60
2022-10-14T13:30:00.254Z,5.88
2022-10-14T13:32:31.190Z,7.30
2022-10-14T13:34:57.657Z,6.72
2022-10-14T13:37:30.015Z,6.55
2022-10-14T13:39:57.369Z,6.53
2022-10-14T13:42:30.234Z,6.90
2022-10-14T13:45:03.044Z,7.30
2022-10-14T13:47:29.354Z,6.43
2022-10-14T13:49:55.910Z,6.03
2022-10-14T13:52:25.874Z,5.90
2022-10-14T13:55:10.788Z,6.47
2022-10-14T13:58:07.438Z,7.03
2022-10-14T14:00:40.726Z,6.85
2022-10-14T14:03:28.626Z,7.00
2022-10-14T14:05:55.414Z,6.38
2022-10-14T14:08:43.152Z,6.93
2022-10-14T14:11:17.734Z,6.15
2022-10-14T14:14:00.795Z,6.95
2022-10-14T14:16:32.630Z,7.50
2022-10-14T14:19:14.171Z,7.28
2022-10-14T14:21:40.616Z,7.47
2022-10-14T14:24:15.074Z,7.72
2022-10-14T14:26:41.338Z,7.68
2022-10-14T14:29:14.635Z,8.60
2022-10-14T14:34:27.326Z,8.45
2022-10-14T14:37:01.344Z,8.90
2022-10-14T14:39:32.191Z,9.32
2022-10-14T14:41:59.463Z,8.90
2022-10-14T14:44:26.824Z,10.38
2022-10-14T14:46:55.175Z,10.05
2022-10-14T14:49:25.343Z,10.43
2022-10-14T14:51:51.660Z,10.52
2022-10-14T14:54:19.327Z,10.40
2022-10-14T14:56:47.686Z,10.70
2022-10-14T14:59:16.631Z,11.30
2022-10-14T15:01:43.156Z,11.38
2022-10-14T15:04:22.530Z,11.65
2022-10-14T15:06:51.193Z,10.90
2022-10-14T15:09:23.059Z,11.95
2022-10-14T15:11:50.873Z,11.95
2022-10-14T15:14:32.400Z,12.68
2022-10-14T15:16:58.741Z,10.95
2022-10-14T15:19:25.618Z,11.85
2022-10-14T15:22:09.754Z,12.25
2022-10-14T15:24:55.762Z,12.10
2022-10-14T15:27:41.793Z,12.20
2022-10-14T15:30:17.546Z,12.63
2022-10-14T15:32:43.859Z,12.32
2022-10-14T15:35:13.959Z,12.98
2022-10-14T15:37:40.323Z,12.50
2022-10-14T15:40:11.603Z,13.20
2022-10-14T15:42:37.867Z,12.27
2022-10-14T15:45:04.276Z,12.80
2022-10-14T15:47:30.540Z,12.32
2022-10-14T15:49:56.983Z,13.23
2022-10-14T15:52:26.165Z,12.38
2022-10-14T15:54:53.705Z,12.70
2022-10-14T15:57:19.920Z,12.85
2022-10-14T15:59:46.411Z,12.90
2022-10-14T16:02:18.057Z,12.50
2022-10-14T16:05:00.591Z,13.20
2022-10-14T16:07:30.615Z,13.90
2022-10-14T16:09:56.949Z,14.05
2022-10-14T16:12:23.219Z,13.43
2022-10-14T16:14:49.456Z,14.88
2022-10-14T16:17:15.733Z,14.95
2022-10-14T16:19:41.964Z,14.15
2022-10-14T16:22:08.895Z,14.27
2022-10-14T16:24:35.105Z,14.05
2022-10-14T16:27:01.380Z,13.73
2022-10-14T16:29:27.944Z,14.05
2022-10-14T16:31:54.380Z,13.73
2022-10-14T16:34:22.265Z,12.90
2022-10-14T16:36:48.988Z,13.98
2022-10-14T16:39:15.608Z,14.30
2022-10-14T16:41:42.228Z,14.10
2022-10-14T16:44:24.818Z,16.40
2022-10-14T16:47:10.963Z,14.82
2022-10-14T16:49:37.266Z,15.77
2022-10-14T16:52:03.526Z,16.10
2022-10-14T16:54:29.783Z,15.32
2022-10-14T16:56:56.817Z,15.70
2022-10-14T16:59:23.867Z,15.73
2022-10-14T17:01:50.895Z,16.15
2022-10-14T17:04:19.449Z,17.42
2022-10-14T17:06:46.371Z,16.90
2022-10-14T17:09:12.878Z,16.13
2022-10-14T17:11:39.492Z,16.48
2022-10-14T17:14:05.726Z,18.08
2022-10-14T17:16:31.955Z,18.52
2022-10-14T17:18:58.750Z,18.55
2022-10-14T17:21:27.988Z,20.90
2022-10-14T17:23:54.219Z,18.85
2022-10-14T17:26:20.702Z,18.05
2022-10-14T17:28:47.863Z,16.90
2022-10-14T17:31:16.166Z,13.02
2022-10-14T17:33:42.700Z,14.07
2022-10-14T17:36:17.686Z,12.82
2022-10-14T17:38:44.257Z,15.70
2022-10-14T17:41:11.295Z,14.60
2022-10-14T17:43:37.928Z,16.65
2022-10-14T17:46:05.336Z,18.80
2022-10-14T17:48:32.126Z,19.60
2022-10-14T17:50:58.406Z,19.08
2022-10-14T17:53:24.681Z,18.10
2022-10-14T17:55:54.017Z,18.77
2022-10-14T17:58:23.288Z,17.92
2022-10-14T18:00:49.677Z,18.75
2022-10-14T18:03:16.001Z,17.75
2022-10-14T18:05:46.532Z,18.60
2022-10-14T18:08:15.255Z,19.42
2022-10-14T18:10:41.675Z,18.55
2022-10-14T18:13:07.923Z,17.55
2022-10-14T18:15:34.292Z,16.75
2022-10-14T18:18:00.560Z,17.00
2022-10-14T18:20:26.880Z,15.95
2022-10-14T18:22:53.191Z,15.68
2022-10-14T18:25:19.962Z,15.82
2022-10-14T18:27:46.618Z,16.35
2022-10-14T18:30:12.962Z,15.35
2022-10-14T18:32:39.258Z,14.23
2022-10-14T18:35:06.187Z,14.10
2022-10-14T18:37:32.790Z,14.98
2022-10-14T18:39:59.067Z,15.48
2022-10-14T18:42:25.720Z,23.15
2022-10-14T18:44:52.138Z,19.83
2022-10-14T18:47:18.374Z,16.95
2022-10-14T18:49:45.422Z,20.08
2022-10-14T18:52:11.651Z,20.23
2022-10-14T18:54:37.976Z,18.70
2022-10-14T18:57:04.826Z,17.70
2022-10-14T18:59:31.136Z,17.00
2022-10-14T19:01:57.996Z,15.38
2022-10-14T19:04:25.530Z,16.25
2022-10-14T19:06:51.810Z,15.65
2022-10-14T19:09:20.292Z,15.45
2022-10-14T19:11:49.038Z,15.60
2022-10-14T19:14:15.354Z,14.82
2022-10-14T19:16:42.717Z,14.82
2022-10-14T19:19:11.824Z,14.57
2022-10-14T19:21:38.872Z,14.95
2022-10-14T19:24:05.382Z,15.38
2022-10-14T19:26:33.522Z,14.80
2022-10-14T19:29:00.474Z,14.38
2022-10-14T19:31:28.555Z,14.18
2022-10-14T19:33:55.658Z,14.60
2022-10-14T19:36:22.698Z,14.38
2022-10-14T19:38:58.380Z,13.98
2022-10-14T19:41:34.096Z,12.93
2022-10-14T19:44:00.840Z,13.90
2022-10-14T19:46:27.966Z,14.32
2022-10-14T19:48:58.280Z,16.27
2022-10-14T19:51:25.006Z,16.63
2022-10-14T19:53:51.625Z,15.25
2022-10-14T19:56:17.891Z,17.30
2022-10-14T19:58:45.006Z,17.45
2022-10-14T20:01:13.696Z,28.67
2022-10-14T20:03:40.423Z,30.25
2022-10-14T20:06:07.485Z,21.90
2022-10-14T20:08:34.069Z,19.55
2022-10-14T20:11:01.479Z,19.00
2022-10-14T20:13:27.779Z,20.88
2022-10-14T20:15:54.915Z,22.13
2022-10-14T20:18:21.195Z,21.48
2022-10-14T20:20:47.556Z,16.83
2022-10-14T20:23:13.771Z,16.05
2022-10-14T20:25:41.427Z,15.75
2022-10-14T20:28:08.131Z,14.98
2022-10-14T20:30:34.627Z,15.85
2022-10-14T20:33:00.892Z,14.82
2022-10-14T20:37:58.230Z,13.60
2022-10-14T20:40:24.482Z,14.75
2022-10-14T20:42:50.703Z,16.48
2022-10-14T20:45:16.996Z,18.05
2022-10-14T20:47:43.334Z,19.88
2022-10-14T20:50:10.202Z,17.42
2022-10-14T20:52:36.437Z,14.68
2022-10-14T20:55:02.778Z,15.75
2022-10-14T20:57:28.999Z,14.35
2022-10-14T20:59:55.215Z,15.02
2022-10-14T21:02:21.455Z,15.35
2022-10-14T21:04:48.499Z,16.15
2022-10-14T21:07:14.732Z,15.70
2022-10-14T21:09:41.065Z,19.88
2022-10-14T21:12:07.320Z,20.25
2022-10-14T21:14:33.572Z,18.88
2022-10-14T21:16:59.806Z,20.33
2022-10-14T21:19:26.018Z,18.30
2022-10-14T21:21:52.297Z,18.08
2022-10-14T21:24:19.383Z,17.88
2022-10-14T21:26:47.788Z,19.00
2022-10-14T21:29:14.007Z,18.27
2022-10-14T21:31:40.658Z,17.80
2022-10-14T21:34:07.081Z,18.40
2022-10-14T21:36:34.262Z,18.60
2022-10-14T21:39:03.943Z,16.88
2022-10-14T21:41:30.344Z,17.80
2022-10-14T21:43:58.730Z,18.38
2022-10-14T21:46:25.679Z,17.42
2022-10-14T21:48:54.477Z,17.80
2022-10-14T21:51:20.689Z,18.10
2022-10-14T21:53:46.906Z,18.33
2022-10-14T21:56:13.956Z,17.48
2022-10-14T21:58:40.255Z,17.65
2022-10-14T22:01:07.856Z,18.48
2022-10-14T22:03:34.716Z,18.92
2022-10-14T22:06:01.871Z,18.20
2022-10-14T22:08:32.574Z,19.33
2022-10-14T22:10:58.930Z,18.73
2022-10-14T22:13:25.674Z,18.48
2022-10-14T22:15:51.948Z,18.80
2022-10-14T22:18:18.262Z,20.58
2022-10-14T22:20:44.555Z,21.17
2022-10-14T22:23:10.791Z,22.20
2022-10-14T22:25:37.007Z,21.80
2022-10-14T22:28:04.014Z,21.95
2022-10-14T22:30:30.429Z,22.42
2022-10-14T22:32:56.982Z,21.83
2022-10-14T22:35:24.079Z,22.55
2022-10-14T22:37:50.500Z,21.60
2022-10-14T22:40:16.890Z,21.45
2022-10-14T22:42:44.045Z,21.30
2022-10-14T22:45:11.486Z,21.20
2022-10-14T22:47:37.880Z,22.00
2022-10-14T22:50:04.223Z,22.48
2022-10-14T22:52:30.595Z,22.08
2022-10-14T22:54:56.881Z,21.27
2022-10-14T22:57:23.105Z,22.48
2022-10-14T22:59:49.351Z,22.75
2022-10-14T23:02:15.572Z,21.77
2022-10-14T23:04:41.865Z,22.25
2022-10-14T23:07:08.371Z,22.25
2022-10-14T23:12:01.819Z,22.20
2022-10-14T23:14:30.685Z,21.02
2022-10-14T23:16:56.906Z,20.83
2022-10-14T23:19:23.144Z,19.95
2022-10-14T23:21:49.423Z,20.15
2022-10-14T23:24:15.654Z,19.02
2022-10-14T23:26:41.940Z,19.50
2022-10-14T23:29:09.846Z,21.15
2022-10-14T23:31:36.746Z,20.83
2022-10-14T23:34:06.998Z,21.13
2022-10-14T23:36:33.531Z,22.10
2022-10-14T23:38:59.834Z,21.60
2022-10-14T23:41:26.393Z,21.80
2022-10-14T23:43:53.009Z,20.50
2022-10-14T23:46:19.854Z,21.92
2022-10-14T23:48:55.369Z,21.58
2022-10-14T23:51:32.408Z,22.25
2022-10-14T23:53:58.657Z,21.77
2022-10-14T23:56:24.890Z,22.10
2022-10-14T23:58:51.107Z,22.38
